sensor_id;sensor_type;location;lat;lon;timestamp;temperature;humidity
19799;DHT22;10059;59.850;10.454;2023-03-01T00:01:28;3.40;99.90
19799;DHT22;10059;59.850;10.454;2023-03-01T00:03:57;3.40;99.90
19799;DHT22;10059;59.850;10.454;2023-03-01T00:06:24;3.40;99.90
19799;DHT22;10059;59.850;10.454;2023-03-01T00:08:51;3.50;99.90
19799;DHT22;10059;59.850;10.454;2023-03-01T00:11:20;3.60;99.90
19799;DHT22;10059;59.850;10.454;2023-03-01T00:13:50;3.60;99.90
19799;DHT22;10059;59.850;10.454;2023-03-01T00:16:19;3.60;99.90
19799;DHT22;10059;59.850;10.454;2023-03-01T00:18:48;3.70;99.90
19799;DHT22;10059;59.850;10.454;2023-03-01T00:21:16;3.80;99.90
19799;DHT22;10059;59.850;10.454;2023-03-01T00:23:43;3.80;99.90
19799;DHT22;10059;59.850;10.454;2023-03-01T00:26:12;3.80;99.90
19799;DHT22;10059;59.850;10.454;2023-03-01T00:28:40;3.90;99.90
19799;DHT22;10059;59.850;10.454;2023-03-01T00:31:09;3.90;99.90
19799;DHT22;10059;59.850;10.454;2023-03-01T00:33:36;4.00;99.90
19799;DHT22;10059;59.850;10.454;2023-03-01T00:36:05;4.10;99.90
19799;DHT22;10059;59.850;10.454;2023-03-01T00:38:35;4.00;99.90
19799;DHT22;10059;59.850;10.454;2023-03-01T00:41:05;3.90;99.90
19799;DHT22;10059;59.850;10.454;2023-03-01T00:43:32;3.90;99.90
19799;DHT22;10059;59.850;10.454;2023-03-01T00:46:02;4.00;99.90
19799;DHT22;10059;59.850;10.454;2023-03-01T00:48:29;3.90;99.90
19799;DHT22;10059;59.850;10.454;2023-03-01T00:50:56;3.90;99.90
19799;DHT22;10059;59.850;10.454;2023-03-01T00:53:25;3.80;99.90
19799;DHT22;10059;59.850;10.454;2023-03-01T00:55:51;3.60;99.90
19799;DHT22;10059;59.850;10.454;2023-03-01T00:58:18;3.60;99.90
19799;DHT22;10059;59.850;10.454;2023-03-01T01:00:45;3.60;99.90
19799;DHT22;10059;59.850;10.454;2023-03-01T01:03:12;3.70;99.90
19799;DHT22;10059;59.850;10.454;2023-03-01T01:05:38;3.80;99.90
19799;DHT22;10059;59.850;10.454;2023-03-01T01:08:05;4.10;99.90
19799;DHT22;10059;59.850;10.454;2023-03-01T01:10:34;4.20;99.90
19799;DHT22;10059;59.850;10.454;2023-03-01T01:13:01;4.30;99.90
19799;DHT22;10059;59.850;10.454;2023-03-01T01:15:28;4.40;99.90
19799;DHT22;10059;59.850;10.454;2023-03-01T01:17:55;4.50;99.90
19799;DHT22;10059;59.850;10.454;2023-03-01T01:20:22;4.40;99.90
19799;DHT22;10059;59.850;10.454;2023-03-01T01:22:49;4.50;99.90
19799;DHT22;10059;59.850;10.454;2023-03-01T01:25:16;4.50;99.90
19799;DHT22;10059;59.850;10.454;2023-03-01T01:27:45;4.50;99.90
19799;DHT22;10059;59.850;10.454;2023-03-01T01:30:12;4.50;99.90
19799;DHT22;10059;59.850;10.454;2023-03-01T01:32:39;4.50;99.90
19799;DHT22;10059;59.850;10.454;2023-03-01T01:35:07;4.60;99.90
19799;DHT22;10059;59.850;10.454;2023-03-01T01:37:34;4.60;99.90
19799;DHT22;10059;59.850;10.454;2023-03-01T01:40:03;4.40;99.90
19799;DHT22;10059;59.850;10.454;2023-03-01T01:42:30;4.30;99.90
19799;DHT22;10059;59.850;10.454;2023-03-01T01:45:31;4.30;99.90
19799;DHT22;10059;59.850;10.454;2023-03-01T01:48:02;4.30;99.90
19799;DHT22;10059;59.850;10.454;2023-03-01T01:50:32;4.20;99.90
19799;DHT22;10059;59.850;10.454;2023-03-01T01:53:06;4.00;99.90
19799;DHT22;10059;59.850;10.454;2023-03-01T01:55:36;4.00;99.90
19799;DHT22;10059;59.850;10.454;2023-03-01T01:58:08;3.90;99.90
19799;DHT22;10059;59.850;10.454;2023-03-01T02:00:37;3.90;99.90
19799;DHT22;10059;59.850;10.454;2023-03-01T02:03:08;3.70;99.90
19799;DHT22;10059;59.850;10.454;2023-03-01T02:05:39;3.70;99.90
19799;DHT22;10059;59.850;10.454;2023-03-01T02:08:10;3.60;99.90
19799;DHT22;10059;59.850;10.454;2023-03-01T02:10:37;3.70;99.90
19799;DHT22;10059;59.850;10.454;2023-03-01T02:13:05;3.60;99.90
19799;DHT22;10059;59.850;10.454;2023-03-01T02:15:33;3.50;99.90
19799;DHT22;10059;59.850;10.454;2023-03-01T02:18:03;3.40;99.90
19799;DHT22;10059;59.850;10.454;2023-03-01T02:20:34;3.40;99.90
19799;DHT22;10059;59.850;10.454;2023-03-01T02:23:01;3.40;99.90
19799;DHT22;10059;59.850;10.454;2023-03-01T02:25:37;3.40;99.90
19799;DHT22;10059;59.850;10.454;2023-03-01T02:28:18;3.30;99.90
19799;DHT22;10059;59.850;10.454;2023-03-01T02:30:47;3.10;99.90
19799;DHT22;10059;59.850;10.454;2023-03-01T02:33:30;3.00;99.90
19799;DHT22;10059;59.850;10.454;2023-03-01T02:35:59;3.00;99.90
19799;DHT22;10059;59.850;10.454;2023-03-01T02:38:27;2.90;99.90
19799;DHT22;10059;59.850;10.454;2023-03-01T02:40:55;2.90;99.90
19799;DHT22;10059;59.850;10.454;2023-03-01T02:43:27;2.80;99.90
19799;DHT22;10059;59.850;10.454;2023-03-01T02:45:59;2.80;99.90
19799;DHT22;10059;59.850;10.454;2023-03-01T02:48:26;2.70;99.90
19799;DHT22;10059;59.850;10.454;2023-03-01T02:51:04;2.80;99.90
19799;DHT22;10059;59.850;10.454;2023-03-01T02:53:41;2.90;99.90
19799;DHT22;10059;59.850;10.454;2023-03-01T02:56:10;2.90;99.90
19799;DHT22;10059;59.850;10.454;2023-03-01T02:58:40;2.90;99.90
19799;DHT22;10059;59.850;10.454;2023-03-01T03:01:11;2.90;99.90
19799;DHT22;10059;59.850;10.454;2023-03-01T03:03:39;2.90;99.90
19799;DHT22;10059;59.850;10.454;2023-03-01T03:06:06;2.90;99.90
19799;DHT22;10059;59.850;10.454;2023-03-01T03:08:32;2.90;99.90
19799;DHT22;10059;59.850;10.454;2023-03-01T03:10:59;2.90;99.90
19799;DHT22;10059;59.850;10.454;2023-03-01T03:13:27;2.90;99.90
19799;DHT22;10059;59.850;10.454;2023-03-01T03:15:55;2.80;99.90
19799;DHT22;10059;59.850;10.454;2023-03-01T03:18:23;2.80;99.90
19799;DHT22;10059;59.850;10.454;2023-03-01T03:20:52;2.70;99.90
19799;DHT22;10059;59.850;10.454;2023-03-01T03:23:20;2.70;99.90
19799;DHT22;10059;59.850;10.454;2023-03-01T03:25:48;2.70;99.90
19799;DHT22;10059;59.850;10.454;2023-03-01T03:28:16;2.70;99.90
19799;DHT22;10059;59.850;10.454;2023-03-01T03:30:43;2.70;99.90
19799;DHT22;10059;59.850;10.454;2023-03-01T03:33:12;2.80;99.90
19799;DHT22;10059;59.850;10.454;2023-03-01T03:35:41;2.80;99.90
19799;DHT22;10059;59.850;10.454;2023-03-01T03:38:11;2.90;99.90
19799;DHT22;10059;59.850;10.454;2023-03-01T03:40:43;2.90;99.90
19799;DHT22;10059;59.850;10.454;2023-03-01T03:43:12;3.00;99.90
19799;DHT22;10059;59.850;10.454;2023-03-01T03:45:40;3.00;99.90
19799;DHT22;10059;59.850;10.454;2023-03-01T03:48:09;3.00;99.90
19799;DHT22;10059;59.850;10.454;2023-03-01T03:50:38;2.90;99.90
19799;DHT22;10059;59.850;10.454;2023-03-01T03:53:07;2.90;99.90
19799;DHT22;10059;59.850;10.454;2023-03-01T03:55:34;3.00;99.90
19799;DHT22;10059;59.850;10.454;2023-03-01T03:58:06;2.90;99.90
19799;DHT22;10059;59.850;10.454;2023-03-01T04:00:34;3.00;99.90
19799;DHT22;10059;59.850;10.454;2023-03-01T04:03:02;2.90;99.90
19799;DHT22;10059;59.850;10.454;2023-03-01T04:05:29;2.80;99.90
19799;DHT22;10059;59.850;10.454;2023-03-01T04:07:57;2.80;99.90
19799;DHT22;10059;59.850;10.454;2023-03-01T04:10:34;2.90;99.90
19799;DHT22;10059;59.850;10.454;2023-03-01T04:13:01;2.60;99.90
19799;DHT22;10059;59.850;10.454;2023-03-01T04:15:28;2.50;99.90
19799;DHT22;10059;59.850;10.454;2023-03-01T04:17:55;2.50;99.90
19799;DHT22;10059;59.850;10.454;2023-03-01T04:20:25;2.50;99.90
19799;DHT22;10059;59.850;10.454;2023-03-01T04:22:59;2.30;99.90
19799;DHT22;10059;59.850;10.454;2023-03-01T04:25:34;2.30;99.90
19799;DHT22;10059;59.850;10.454;2023-03-01T04:28:00;2.30;99.90
19799;DHT22;10059;59.850;10.454;2023-03-01T04:30:27;2.10;99.90
19799;DHT22;10059;59.850;10.454;2023-03-01T04:32:54;2.10;99.90
19799;DHT22;10059;59.850;10.454;2023-03-01T04:35:21;2.00;99.90
19799;DHT22;10059;59.850;10.454;2023-03-01T04:37:48;1.90;99.90
19799;DHT22;10059;59.850;10.454;2023-03-01T04:40:17;1.80;99.90
19799;DHT22;10059;59.850;10.454;2023-03-01T04:42:44;1.70;99.90
19799;DHT22;10059;59.850;10.454;2023-03-01T04:45:10;1.50;99.90
19799;DHT22;10059;59.850;10.454;2023-03-01T04:47:40;1.50;99.90
19799;DHT22;10059;59.850;10.454;2023-03-01T04:50:09;1.50;99.90
19799;DHT22;10059;59.850;10.454;2023-03-01T04:52:37;1.50;99.90
19799;DHT22;10059;59.850;10.454;2023-03-01T04:55:04;1.60;99.90
19799;DHT22;10059;59.850;10.454;2023-03-01T04:57:33;1.50;99.90
19799;DHT22;10059;59.850;10.454;2023-03-01T05:00:00;1.50;99.90
19799;DHT22;10059;59.850;10.454;2023-03-01T05:02:31;1.40;99.90
19799;DHT22;10059;59.850;10.454;2023-03-01T05:04:58;1.40;99.90
19799;DHT22;10059;59.850;10.454;2023-03-01T05:07:24;1.40;99.90
19799;DHT22;10059;59.850;10.454;2023-03-01T05:09:52;1.50;99.90
19799;DHT22;10059;59.850;10.454;2023-03-01T05:12:19;1.60;99.90
19799;DHT22;10059;59.850;10.454;2023-03-01T05:14:48;1.70;99.90
19799;DHT22;10059;59.850;10.454;2023-03-01T05:17:16;1.80;99.90
19799;DHT22;10059;59.850;10.454;2023-03-01T05:19:43;2.00;99.90
19799;DHT22;10059;59.850;10.454;2023-03-01T05:22:10;2.10;99.90
19799;DHT22;10059;59.850;10.454;2023-03-01T05:24:37;2.10;99.90
19799;DHT22;10059;59.850;10.454;2023-03-01T05:27:04;2.10;99.90
19799;DHT22;10059;59.850;10.454;2023-03-01T05:29:32;2.20;99.90
19799;DHT22;10059;59.850;10.454;2023-03-01T05:32:02;2.20;99.90
19799;DHT22;10059;59.850;10.454;2023-03-01T05:34:30;2.10;99.90
19799;DHT22;10059;59.850;10.454;2023-03-01T05:36:58;2.00;99.90
19799;DHT22;10059;59.850;10.454;2023-03-01T05:39:26;2.00;99.90
19799;DHT22;10059;59.850;10.454;2023-03-01T05:41:54;2.00;99.90
19799;DHT22;10059;59.850;10.454;2023-03-01T05:44:22;1.90;99.90
19799;DHT22;10059;59.850;10.454;2023-03-01T05:46:49;2.00;99.90
19799;DHT22;10059;59.850;10.454;2023-03-01T05:49:17;2.00;99.90
19799;DHT22;10059;59.850;10.454;2023-03-01T05:51:48;2.00;99.90
19799;DHT22;10059;59.850;10.454;2023-03-01T05:54:15;2.10;99.90
19799;DHT22;10059;59.850;10.454;2023-03-01T05:56:42;2.10;99.90
19799;DHT22;10059;59.850;10.454;2023-03-01T05:59:09;2.10;99.90
19799;DHT22;10059;59.850;10.454;2023-03-01T06:01:37;2.00;99.90
19799;DHT22;10059;59.850;10.454;2023-03-01T06:04:04;1.80;99.90
19799;DHT22;10059;59.850;10.454;2023-03-01T06:06:35;1.90;99.90
19799;DHT22;10059;59.850;10.454;2023-03-01T06:09:03;1.80;99.90
19799;DHT22;10059;59.850;10.454;2023-03-01T06:11:30;1.90;99.90
19799;DHT22;10059;59.850;10.454;2023-03-01T06:13:56;2.10;99.90
19799;DHT22;10059;59.850;10.454;2023-03-01T06:16:23;1.80;99.90
19799;DHT22;10059;59.850;10.454;2023-03-01T06:18:50;1.80;99.90
19799;DHT22;10059;59.850;10.454;2023-03-01T06:21:17;1.80;99.90
19799;DHT22;10059;59.850;10.454;2023-03-01T06:23:45;1.70;99.90
19799;DHT22;10059;59.850;10.454;2023-03-01T06:26:12;1.70;99.90
19799;DHT22;10059;59.850;10.454;2023-03-01T06:28:39;1.70;99.90
19799;DHT22;10059;59.850;10.454;2023-03-01T06:31:06;1.80;99.90
19799;DHT22;10059;59.850;10.454;2023-03-01T06:33:34;2.00;99.90
19799;DHT22;10059;59.850;10.454;2023-03-01T06:36:01;2.30;99.90
19799;DHT22;10059;59.850;10.454;2023-03-01T06:38:28;2.50;99.90
19799;DHT22;10059;59.850;10.454;2023-03-01T06:40:56;2.50;99.90
19799;DHT22;10059;59.850;10.454;2023-03-01T06:43:23;2.60;99.90
19799;DHT22;10059;59.850;10.454;2023-03-01T06:45:50;2.70;99.90
19799;DHT22;10059;59.850;10.454;2023-03-01T06:48:17;3.10;99.90
19799;DHT22;10059;59.850;10.454;2023-03-01T06:50:44;3.30;99.90
19799;DHT22;10059;59.850;10.454;2023-03-01T06:53:11;3.30;99.90
19799;DHT22;10059;59.850;10.454;2023-03-01T06:55:37;3.20;99.90
19799;DHT22;10059;59.850;10.454;2023-03-01T06:58:06;3.50;99.90
19799;DHT22;10059;59.850;10.454;2023-03-01T07:00:33;3.70;99.90
19799;DHT22;10059;59.850;10.454;2023-03-01T07:03:00;3.90;99.90
19799;DHT22;10059;59.850;10.454;2023-03-01T07:05:28;4.00;99.90
19799;DHT22;10059;59.850;10.454;2023-03-01T07:07:55;3.90;99.90
19799;DHT22;10059;59.850;10.454;2023-03-01T07:10:22;4.00;99.90
19799;DHT22;10059;59.850;10.454;2023-03-01T07:12:49;4.50;99.90
19799;DHT22;10059;59.850;10.454;2023-03-01T07:15:17;5.50;99.90
19799;DHT22;10059;59.850;10.454;2023-03-01T07:17:44;6.20;99.90
19799;DHT22;10059;59.850;10.454;2023-03-01T07:20:13;6.70;99.90
19799;DHT22;10059;59.850;10.454;2023-03-01T07:22:41;7.60;99.90
19799;DHT22;10059;59.850;10.454;2023-03-01T07:25:09;8.20;99.90
19799;DHT22;10059;59.850;10.454;2023-03-01T07:27:36;8.90;99.90
19799;DHT22;10059;59.850;10.454;2023-03-01T07:30:04;8.70;99.90
19799;DHT22;10059;59.850;10.454;2023-03-01T07:32:32;7.80;99.90
19799;DHT22;10059;59.850;10.454;2023-03-01T07:34:59;8.00;99.90
19799;DHT22;10059;59.850;10.454;2023-03-01T07:37:26;7.30;99.90
19799;DHT22;10059;59.850;10.454;2023-03-01T07:39:53;7.70;99.90
19799;DHT22;10059;59.850;10.454;2023-03-01T07:42:20;8.20;99.90
19799;DHT22;10059;59.850;10.454;2023-03-01T07:44:46;8.20;99.90
19799;DHT22;10059;59.850;10.454;2023-03-01T07:47:13;7.80;99.90
19799;DHT22;10059;59.850;10.454;2023-03-01T07:49:42;7.90;99.90
19799;DHT22;10059;59.850;10.454;2023-03-01T07:52:10;8.20;99.90
19799;DHT22;10059;59.850;10.454;2023-03-01T07:54:37;8.50;99.90
19799;DHT22;10059;59.850;10.454;2023-03-01T07:57:04;8.80;99.90
19799;DHT22;10059;59.850;10.454;2023-03-01T07:59:31;8.70;99.90
19799;DHT22;10059;59.850;10.454;2023-03-01T08:01:58;9.30;99.90
19799;DHT22;10059;59.850;10.454;2023-03-01T08:04:25;10.30;99.90
19799;DHT22;10059;59.850;10.454;2023-03-01T08:06:53;10.60;99.90
19799;DHT22;10059;59.850;10.454;2023-03-01T08:09:20;10.10;99.90
19799;DHT22;10059;59.850;10.454;2023-03-01T08:11:47;10.20;99.90
19799;DHT22;10059;59.850;10.454;2023-03-01T08:14:14;10.10;99.90
19799;DHT22;10059;59.850;10.454;2023-03-01T08:16:41;10.20;99.90
19799;DHT22;10059;59.850;10.454;2023-03-01T08:19:10;10.50;99.90
19799;DHT22;10059;59.850;10.454;2023-03-01T08:21:38;10.80;99.90
19799;DHT22;10059;59.850;10.454;2023-03-01T08:24:07;12.30;99.90
19799;DHT22;10059;59.850;10.454;2023-03-01T08:26:36;12.50;99.90
19799;DHT22;10059;59.850;10.454;2023-03-01T08:29:03;13.30;99.10
19799;DHT22;10059;59.850;10.454;2023-03-01T08:31:32;12.50;99.00
19799;DHT22;10059;59.850;10.454;2023-03-01T08:34:02;12.00;98.20
19799;DHT22;10059;59.850;10.454;2023-03-01T08:36:31;11.10;99.50
19799;DHT22;10059;59.850;10.454;2023-03-01T08:38:58;11.30;99.00
19799;DHT22;10059;59.850;10.454;2023-03-01T08:41:27;11.50;99.00
19799;DHT22;10059;59.850;10.454;2023-03-01T08:43:54;11.50;99.10
19799;DHT22;10059;59.850;10.454;2023-03-01T08:46:24;11.20;97.90
19799;DHT22;10059;59.850;10.454;2023-03-01T08:48:51;12.20;98.20
19799;DHT22;10059;59.850;10.454;2023-03-01T08:51:19;12.60;96.50
19799;DHT22;10059;59.850;10.454;2023-03-01T08:53:47;13.30;96.20
19799;DHT22;10059;59.850;10.454;2023-03-01T08:56:15;13.50;93.90
19799;DHT22;10059;59.850;10.454;2023-03-01T08:58:46;13.70;95.30
19799;DHT22;10059;59.850;10.454;2023-03-01T09:01:14;14.00;92.60
19799;DHT22;10059;59.850;10.454;2023-03-01T09:03:42;14.70;92.40
19799;DHT22;10059;59.850;10.454;2023-03-01T09:06:10;16.00;90.10
19799;DHT22;10059;59.850;10.454;2023-03-01T09:08:38;14.90;89.00
19799;DHT22;10059;59.850;10.454;2023-03-01T09:11:08;14.20;90.30
19799;DHT22;10059;59.850;10.454;2023-03-01T09:13:35;14.00;91.30
19799;DHT22;10059;59.850;10.454;2023-03-01T09:16:06;14.00;90.50
19799;DHT22;10059;59.850;10.454;2023-03-01T09:18:33;13.60;90.60
19799;DHT22;10059;59.850;10.454;2023-03-01T09:21:04;13.90;90.20
19799;DHT22;10059;59.850;10.454;2023-03-01T09:23:33;14.30;90.40
19799;DHT22;10059;59.850;10.454;2023-03-01T09:25:59;15.20;90.20
19799;DHT22;10059;59.850;10.454;2023-03-01T09:28:26;13.20;91.00
19799;DHT22;10059;59.850;10.454;2023-03-01T09:30:53;11.90;92.30
19799;DHT22;10059;59.850;10.454;2023-03-01T09:33:21;11.50;94.60
19799;DHT22;10059;59.850;10.454;2023-03-01T09:35:48;12.20;93.90
19799;DHT22;10059;59.850;10.454;2023-03-01T09:38:15;13.40;93.50
19799;DHT22;10059;59.850;10.454;2023-03-01T09:40:43;14.60;92.40
19799;DHT22;10059;59.850;10.454;2023-03-01T09:43:18;15.30;86.90
19799;DHT22;10059;59.850;10.454;2023-03-01T09:45:48;14.80;87.90
19799;DHT22;10059;59.850;10.454;2023-03-01T09:48:18;15.70;88.40
19799;DHT22;10059;59.850;10.454;2023-03-01T09:50:49;16.30;84.80
19799;DHT22;10059;59.850;10.454;2023-03-01T09:53:18;16.30;83.90
19799;DHT22;10059;59.850;10.454;2023-03-01T09:55:50;15.60;85.10
19799;DHT22;10059;59.850;10.454;2023-03-01T09:58:37;13.90;89.20
19799;DHT22;10059;59.850;10.454;2023-03-01T10:01:19;13.60;91.00
19799;DHT22;10059;59.850;10.454;2023-03-01T10:04:00;14.60;90.30
19799;DHT22;10059;59.850;10.454;2023-03-01T10:06:31;14.90;90.00
19799;DHT22;10059;59.850;10.454;2023-03-01T10:09:00;15.70;86.50
19799;DHT22;10059;59.850;10.454;2023-03-01T10:11:31;16.50;86.00
19799;DHT22;10059;59.850;10.454;2023-03-01T10:14:03;17.50;82.90
19799;DHT22;10059;59.850;10.454;2023-03-01T10:16:38;17.50;77.20
19799;DHT22;10059;59.850;10.454;2023-03-01T10:19:12;17.60;78.20
19799;DHT22;10059;59.850;10.454;2023-03-01T10:21:44;17.80;78.40
19799;DHT22;10059;59.850;10.454;2023-03-01T10:24:14;18.30;75.30
19799;DHT22;10059;59.850;10.454;2023-03-01T10:26:54;17.50;74.90
19799;DHT22;10059;59.850;10.454;2023-03-01T10:29:25;17.10;76.90
19799;DHT22;10059;59.850;10.454;2023-03-01T10:31:53;17.30;75.80
19799;DHT22;10059;59.850;10.454;2023-03-01T10:34:25;18.20;74.60
19799;DHT22;10059;59.850;10.454;2023-03-01T10:36:56;19.00;71.90
19799;DHT22;10059;59.850;10.454;2023-03-01T10:39:26;19.90;69.60
19799;DHT22;10059;59.850;10.454;2023-03-01T10:41:58;20.50;68.10
19799;DHT22;10059;59.850;10.454;2023-03-01T10:44:43;20.40;67.40
19799;DHT22;10059;59.850;10.454;2023-03-01T10:47:28;21.60;64.70
19799;DHT22;10059;59.850;10.454;2023-03-01T10:50:00;20.70;65.00
19799;DHT22;10059;59.850;10.454;2023-03-01T10:52:31;20.70;64.00
19799;DHT22;10059;59.850;10.454;2023-03-01T10:55:00;21.60;63.90
19799;DHT22;10059;59.850;10.454;2023-03-01T10:57:36;21.20;62.60
19799;DHT22;10059;59.850;10.454;2023-03-01T11:00:24;20.20;63.70
19799;DHT22;10059;59.850;10.454;2023-03-01T11:03:04;19.90;63.70
19799;DHT22;10059;59.850;10.454;2023-03-01T11:05:36;19.90;65.00
19799;DHT22;10059;59.850;10.454;2023-03-01T11:08:04;17.10;67.70
19799;DHT22;10059;59.850;10.454;2023-03-01T11:10:33;17.30;70.60
19799;DHT22;10059;59.850;10.454;2023-03-01T11:13:08;18.40;67.70
19799;DHT22;10059;59.850;10.454;2023-03-01T11:15:35;17.60;68.20
19799;DHT22;10059;59.850;10.454;2023-03-01T11:18:02;16.70;68.40
19799;DHT22;10059;59.850;10.454;2023-03-01T11:20:32;17.70;68.60
19799;DHT22;10059;59.850;10.454;2023-03-01T11:23:02;18.00;67.30
19799;DHT22;10059;59.850;10.454;2023-03-01T11:25:35;18.90;65.60
19799;DHT22;10059;59.850;10.454;2023-03-01T11:28:05;19.60;63.90
19799;DHT22;10059;59.850;10.454;2023-03-01T11:30:35;20.50;63.10
19799;DHT22;10059;59.850;10.454;2023-03-01T11:33:11;20.50;61.10
19799;DHT22;10059;59.850;10.454;2023-03-01T11:35:44;20.80;61.70
19799;DHT22;10059;59.850;10.454;2023-03-01T11:38:20;21.40;60.70
19799;DHT22;10059;59.850;10.454;2023-03-01T11:40:53;21.60;60.80
19799;DHT22;10059;59.850;10.454;2023-03-01T11:43:29;21.90;59.00
19799;DHT22;10059;59.850;10.454;2023-03-01T11:48:58;21.30;59.10
19799;DHT22;10059;59.850;10.454;2023-03-01T11:51:41;21.80;59.20
19799;DHT22;10059;59.850;10.454;2023-03-01T11:54:25;20.90;58.30
19799;DHT22;10059;59.850;10.454;2023-03-01T11:57:01;20.30;59.30
19799;DHT22;10059;59.850;10.454;2023-03-01T11:59:52;20.60;58.70
19799;DHT22;10059;59.850;10.454;2023-03-01T12:02:39;21.10;58.90
19799;DHT22;10059;59.850;10.454;2023-03-01T12:05:28;20.30;59.20
19799;DHT22;10059;59.850;10.454;2023-03-01T12:08:05;19.80;58.50
19799;DHT22;10059;59.850;10.454;2023-03-01T12:10:42;19.90;60.30
19799;DHT22;10059;59.850;10.454;2023-03-01T12:16:29;20.60;58.50
19799;DHT22;10059;59.850;10.454;2023-03-01T12:19:13;20.10;58.60
19799;DHT22;10059;59.850;10.454;2023-03-01T12:21:59;19.30;59.40
19799;DHT22;10059;59.850;10.454;2023-03-01T12:24:46;19.00;59.60
19799;DHT22;10059;59.850;10.454;2023-03-01T12:27:31;18.50;61.40
19799;DHT22;10059;59.850;10.454;2023-03-01T12:30:09;18.90;60.70
19799;DHT22;10059;59.850;10.454;2023-03-01T12:32:49;17.50;61.60
19799;DHT22;10059;59.850;10.454;2023-03-01T12:35:36;17.30;62.80
19799;DHT22;10059;59.850;10.454;2023-03-01T12:38:17;17.10;64.40
19799;DHT22;10059;59.850;10.454;2023-03-01T12:41:20;18.80;61.70
19799;DHT22;10059;59.850;10.454;2023-03-01T12:43:58;19.20;61.10
19799;DHT22;10059;59.850;10.454;2023-03-01T12:46:41;19.30;62.10
19799;DHT22;10059;59.850;10.454;2023-03-01T12:49:15;19.80;59.80
19799;DHT22;10059;59.850;10.454;2023-03-01T12:51:46;19.40;58.80
19799;DHT22;10059;59.850;10.454;2023-03-01T12:54:22;19.20;59.60
19799;DHT22;10059;59.850;10.454;2023-03-01T12:56:52;19.00;60.20
19799;DHT22;10059;59.850;10.454;2023-03-01T12:59:24;18.30;61.00
19799;DHT22;10059;59.850;10.454;2023-03-01T13:02:03;18.40;61.10
19799;DHT22;10059;59.850;10.454;2023-03-01T13:04:40;18.00;62.20
19799;DHT22;10059;59.850;10.454;2023-03-01T13:07:22;18.30;61.60
19799;DHT22;10059;59.850;10.454;2023-03-01T13:10:02;18.30;62.00
19799;DHT22;10059;59.850;10.454;2023-03-01T13:12:52;17.90;62.10
19799;DHT22;10059;59.850;10.454;2023-03-01T13:15:33;17.40;63.40
19799;DHT22;10059;59.850;10.454;2023-03-01T13:18:03;17.00;63.10
19799;DHT22;10059;59.850;10.454;2023-03-01T13:20:33;16.80;63.10
19799;DHT22;10059;59.850;10.454;2023-03-01T13:23:13;17.00;64.60
19799;DHT22;10059;59.850;10.454;2023-03-01T13:26:01;17.40;64.30
19799;DHT22;10059;59.850;10.454;2023-03-01T13:28:56;17.80;64.40
19799;DHT22;10059;59.850;10.454;2023-03-01T13:31:58;17.70;62.70
19799;DHT22;10059;59.850;10.454;2023-03-01T13:34:54;16.50;63.80
19799;DHT22;10059;59.850;10.454;2023-03-01T13:37:26;16.10;66.40
19799;DHT22;10059;59.850;10.454;2023-03-01T13:39:55;14.90;67.70
19799;DHT22;10059;59.850;10.454;2023-03-01T13:42:34;13.90;70.00
19799;DHT22;10059;59.850;10.454;2023-03-01T13:45:04;13.70;71.60
19799;DHT22;10059;59.850;10.454;2023-03-01T13:47:33;13.50;71.30
19799;DHT22;10059;59.850;10.454;2023-03-01T13:50:04;13.50;71.60
19799;DHT22;10059;59.850;10.454;2023-03-01T13:52:38;13.80;70.60
19799;DHT22;10059;59.850;10.454;2023-03-01T13:55:16;13.90;71.60
19799;DHT22;10059;59.850;10.454;2023-03-01T13:57:46;13.70;72.60
19799;DHT22;10059;59.850;10.454;2023-03-01T14:00:31;13.50;71.60
19799;DHT22;10059;59.850;10.454;2023-03-01T14:03:10;12.90;73.00
19799;DHT22;10059;59.850;10.454;2023-03-01T14:05:41;13.10;73.10
19799;DHT22;10059;59.850;10.454;2023-03-01T14:08:23;13.40;73.20
19799;DHT22;10059;59.850;10.454;2023-03-01T14:14:09;13.10;74.10
19799;DHT22;10059;59.850;10.454;2023-03-01T14:16:44;12.20;74.30
19799;DHT22;10059;59.850;10.454;2023-03-01T14:19:16;12.20;75.70
19799;DHT22;10059;59.850;10.454;2023-03-01T14:21:46;11.90;75.60
19799;DHT22;10059;59.850;10.454;2023-03-01T14:24:18;11.80;77.00
19799;DHT22;10059;59.850;10.454;2023-03-01T14:26:46;11.30;77.90
19799;DHT22;10059;59.850;10.454;2023-03-01T14:29:27;11.30;79.50
19799;DHT22;10059;59.850;10.454;2023-03-01T14:31:54;11.60;80.00
19799;DHT22;10059;59.850;10.454;2023-03-01T14:34:22;11.80;79.80
19799;DHT22;10059;59.850;10.454;2023-03-01T14:36:51;11.70;79.20
19799;DHT22;10059;59.850;10.454;2023-03-01T14:39:19;11.30;78.90
19799;DHT22;10059;59.850;10.454;2023-03-01T14:41:46;11.10;81.40
19799;DHT22;10059;59.850;10.454;2023-03-01T14:44:17;11.00;80.40
19799;DHT22;10059;59.850;10.454;2023-03-01T14:46:46;10.90;81.60
19799;DHT22;10059;59.850;10.454;2023-03-01T14:49:15;10.80;80.90
19799;DHT22;10059;59.850;10.454;2023-03-01T14:51:49;10.40;82.20
19799;DHT22;10059;59.850;10.454;2023-03-01T14:54:23;10.20;82.30
19799;DHT22;10059;59.850;10.454;2023-03-01T14:56:52;10.00;83.80
19799;DHT22;10059;59.850;10.454;2023-03-01T14:59:21;10.00;83.20
19799;DHT22;10059;59.850;10.454;2023-03-01T15:01:49;9.80;83.50
19799;DHT22;10059;59.850;10.454;2023-03-01T15:04:18;9.80;85.20
19799;DHT22;10059;59.850;10.454;2023-03-01T15:06:47;9.80;85.70
19799;DHT22;10059;59.850;10.454;2023-03-01T15:09:15;9.70;87.70
19799;DHT22;10059;59.850;10.454;2023-03-01T15:11:44;9.70;88.00
19799;DHT22;10059;59.850;10.454;2023-03-01T15:14:39;9.80;86.30
19799;DHT22;10059;59.850;10.454;2023-03-01T15:17:20;9.60;89.00
19799;DHT22;10059;59.850;10.454;2023-03-01T15:19:48;9.60;88.70
19799;DHT22;10059;59.850;10.454;2023-03-01T15:22:16;9.50;89.10
19799;DHT22;10059;59.850;10.454;2023-03-01T15:24:47;9.40;89.00
19799;DHT22;10059;59.850;10.454;2023-03-01T15:27:17;9.50;90.10
19799;DHT22;10059;59.850;10.454;2023-03-01T15:29:49;9.20;90.20
19799;DHT22;10059;59.850;10.454;2023-03-01T15:32:28;9.30;90.00
19799;DHT22;10059;59.850;10.454;2023-03-01T15:34:56;9.30;90.30
19799;DHT22;10059;59.850;10.454;2023-03-01T15:37:40;9.30;90.20
19799;DHT22;10059;59.850;10.454;2023-03-01T15:40:21;9.10;90.40
19799;DHT22;10059;59.850;10.454;2023-03-01T15:42:51;9.10;91.70
19799;DHT22;10059;59.850;10.454;2023-03-01T15:45:23;8.80;90.40
19799;DHT22;10059;59.850;10.454;2023-03-01T15:47:53;9.00;90.90
19799;DHT22;10059;59.850;10.454;2023-03-01T15:50:25;9.00;90.70
19799;DHT22;10059;59.850;10.454;2023-03-01T15:52:53;8.80;90.60
19799;DHT22;10059;59.850;10.454;2023-03-01T15:55:21;8.60;91.40
19799;DHT22;10059;59.850;10.454;2023-03-01T15:57:50;8.50;91.30